sensor_id;sensor_type;location;lat;lon;timestamp;P1;durP1;ratioP1;P2;durP2;ratioP2
8281;SDS011;25606;42.686;23.136;2022-09-09T00:00:40;9.53;;;7.90;;
8281;SDS011;25606;42.686;23.136;2022-09-09T00:03:11;11.00;;;8.63;;
8281;SDS011;25606;42.686;23.136;2022-09-09T00:05:41;9.13;;;8.20;;
8281;SDS011;25606;42.686;23.136;2022-09-09T00:08:13;8.80;;;8.00;;
8281;SDS011;25606;42.686;23.136;2022-09-09T00:10:43;8.97;;;8.07;;
8281;SDS011;25606;42.686;23.136;2022-09-09T00:13:14;8.80;;;7.93;;
8281;SDS011;25606;42.686;23.136;2022-09-09T00:15:46;8.83;;;8.07;;
8281;SDS011;25606;42.686;23.136;2022-09-09T00:18:17;8.60;;;7.80;;
8281;SDS011;25606;42.686;23.136;2022-09-09T00:20:49;8.87;;;7.73;;
8281;SDS011;25606;42.686;23.136;2022-09-09T00:23:20;8.13;;;7.43;;
8281;SDS011;25606;42.686;23.136;2022-09-09T00:25:54;9.13;;;8.27;;
8281;SDS011;25606;42.686;23.136;2022-09-09T00:28:22;8.87;;;8.03;;
8281;SDS011;25606;42.686;23.136;2022-09-09T00:30:51;9.67;;;7.87;;
8281;SDS011;25606;42.686;23.136;2022-09-09T00:33:20;10.03;;;8.03;;
8281;SDS011;25606;42.686;23.136;2022-09-09T00:35:50;9.00;;;8.20;;
8281;SDS011;25606;42.686;23.136;2022-09-09T00:38:18;10.87;;;8.87;;
8281;SDS011;25606;42.686;23.136;2022-09-09T00:40:48;9.70;;;8.70;;
8281;SDS011;25606;42.686;23.136;2022-09-09T00:43:23;8.73;;;7.83;;
8281;SDS011;25606;42.686;23.136;2022-09-09T00:45:54;11.90;;;8.90;;
8281;SDS011;25606;42.686;23.136;2022-09-09T00:48:27;9.37;;;8.47;;
8281;SDS011;25606;42.686;23.136;2022-09-09T00:51:00;10.30;;;8.70;;
8281;SDS011;25606;42.686;23.136;2022-09-09T00:53:33;9.60;;;8.70;;
8281;SDS011;25606;42.686;23.136;2022-09-09T00:56:07;8.87;;;7.97;;
8281;SDS011;25606;42.686;23.136;2022-09-09T00:58:37;9.27;;;8.37;;
8281;SDS011;25606;42.686;23.136;2022-09-09T01:01:05;9.17;;;8.37;;
8281;SDS011;25606;42.686;23.136;2022-09-09T01:03:34;9.70;;;8.80;;
8281;SDS011;25606;42.686;23.136;2022-09-09T01:06:02;9.20;;;8.40;;
8281;SDS011;25606;42.686;23.136;2022-09-09T01:08:42;9.47;;;8.57;;
8281;SDS011;25606;42.686;23.136;2022-09-09T01:11:15;9.67;;;8.50;;
8281;SDS011;25606;42.686;23.136;2022-09-09T01:13:44;9.87;;;8.87;;
8281;SDS011;25606;42.686;23.136;2022-09-09T01:16:12;9.10;;;8.13;;
8281;SDS011;25606;42.686;23.136;2022-09-09T01:18:43;8.87;;;8.07;;
8281;SDS011;25606;42.686;23.136;2022-09-09T01:21:14;9.13;;;8.23;;
8281;SDS011;25606;42.686;23.136;2022-09-09T01:23:48;10.47;;;8.73;;
8281;SDS011;25606;42.686;23.136;2022-09-09T01:26:23;10.20;;;9.20;;
8281;SDS011;25606;42.686;23.136;2022-09-09T01:28:52;12.93;;;9.53;;
8281;SDS011;25606;42.686;23.136;2022-09-09T01:31:20;9.67;;;8.67;;
8281;SDS011;25606;42.686;23.136;2022-09-09T01:33:48;9.90;;;8.90;;
8281;SDS011;25606;42.686;23.136;2022-09-09T01:36:18;9.83;;;8.73;;
8281;SDS011;25606;42.686;23.136;2022-09-09T01:38:46;9.57;;;8.67;;
8281;SDS011;25606;42.686;23.136;2022-09-09T01:41:14;9.67;;;8.63;;
8281;SDS011;25606;42.686;23.136;2022-09-09T01:43:43;8.90;;;8.07;;
8281;SDS011;25606;42.686;23.136;2022-09-09T01:46:10;9.53;;;8.57;;
8281;SDS011;25606;42.686;23.136;2022-09-09T01:48:38;9.17;;;8.27;;
8281;SDS011;25606;42.686;23.136;2022-09-09T01:51:07;9.33;;;8.30;;
8281;SDS011;25606;42.686;23.136;2022-09-09T01:53:35;11.07;;;9.67;;
8281;SDS011;25606;42.686;23.136;2022-09-09T01:56:05;11.27;;;9.03;;
8281;SDS011;25606;42.686;23.136;2022-09-09T01:58:37;9.60;;;8.60;;
8281;SDS011;25606;42.686;23.136;2022-09-09T02:01:12;9.73;;;8.73;;
8281;SDS011;25606;42.686;23.136;2022-09-09T02:03:43;9.30;;;8.40;;
8281;SDS011;25606;42.686;23.136;2022-09-09T02:06:13;12.37;;;8.73;;
8281;SDS011;25606;42.686;23.136;2022-09-09T02:08:43;10.77;;;9.67;;
8281;SDS011;25606;42.686;23.136;2022-09-09T02:11:13;10.97;;;9.70;;
8281;SDS011;25606;42.686;23.136;2022-09-09T02:13:40;10.53;;;9.53;;
8281;SDS011;25606;42.686;23.136;2022-09-09T02:16:11;11.93;;;9.30;;
8281;SDS011;25606;42.686;23.136;2022-09-09T02:18:44;10.27;;;9.30;;
8281;SDS011;25606;42.686;23.136;2022-09-09T02:21:13;10.93;;;9.77;;
8281;SDS011;25606;42.686;23.136;2022-09-09T02:23:41;12.97;;;9.57;;
8281;SDS011;25606;42.686;23.136;2022-09-09T02:26:10;12.90;;;10.00;;
8281;SDS011;25606;42.686;23.136;2022-09-09T02:28:44;10.17;;;9.10;;
8281;SDS011;25606;42.686;23.136;2022-09-09T02:31:14;10.87;;;9.77;;
8281;SDS011;25606;42.686;23.136;2022-09-09T02:33:43;10.83;;;9.83;;
8281;SDS011;25606;42.686;23.136;2022-09-09T02:36:12;11.43;;;10.27;;
8281;SDS011;25606;42.686;23.136;2022-09-09T02:38:42;10.47;;;9.50;;
8281;SDS011;25606;42.686;23.136;2022-09-09T02:41:15;10.90;;;9.77;;
8281;SDS011;25606;42.686;23.136;2022-09-09T02:43:42;11.77;;;9.93;;
8281;SDS011;25606;42.686;23.136;2022-09-09T02:46:14;11.37;;;10.27;;
8281;SDS011;25606;42.686;23.136;2022-09-09T02:48:49;11.37;;;10.27;;
8281;SDS011;25606;42.686;23.136;2022-09-09T02:51:21;11.57;;;10.47;;
8281;SDS011;25606;42.686;23.136;2022-09-09T02:53:53;11.03;;;9.93;;
8281;SDS011;25606;42.686;23.136;2022-09-09T02:56:25;11.63;;;10.30;;
8281;SDS011;25606;42.686;23.136;2022-09-09T02:58:53;12.97;;;10.43;;
8281;SDS011;25606;42.686;23.136;2022-09-09T03:01:21;12.87;;;10.10;;
8281;SDS011;25606;42.686;23.136;2022-09-09T03:03:49;11.87;;;10.07;;
8281;SDS011;25606;42.686;23.136;2022-09-09T03:06:17;11.20;;;10.13;;
8281;SDS011;25606;42.686;23.136;2022-09-09T03:08:44;13.43;;;10.13;;
8281;SDS011;25606;42.686;23.136;2022-09-09T03:11:11;11.50;;;10.50;;
8281;SDS011;25606;42.686;23.136;2022-09-09T03:13:39;11.20;;;10.10;;
8281;SDS011;25606;42.686;23.136;2022-09-09T03:16:06;11.47;;;10.23;;
8281;SDS011;25606;42.686;23.136;2022-09-09T03:18:34;11.43;;;10.33;;
8281;SDS011;25606;42.686;23.136;2022-09-09T03:21:02;11.83;;;10.73;;
8281;SDS011;25606;42.686;23.136;2022-09-09T03:23:30;11.47;;;10.27;;
8281;SDS011;25606;42.686;23.136;2022-09-09T03:25:57;12.87;;;10.87;;
8281;SDS011;25606;42.686;23.136;2022-09-09T03:28:25;11.93;;;9.83;;
8281;SDS011;25606;42.686;23.136;2022-09-09T03:30:58;12.80;;;10.90;;
8281;SDS011;25606;42.686;23.136;2022-09-09T03:33:25;13.27;;;11.83;;
8281;SDS011;25606;42.686;23.136;2022-09-09T03:35:53;10.80;;;9.87;;
8281;SDS011;25606;42.686;23.136;2022-09-09T03:38:23;12.20;;;11.00;;
8281;SDS011;25606;42.686;23.136;2022-09-09T03:40:50;13.33;;;10.70;;
8281;SDS011;25606;42.686;23.136;2022-09-09T03:43:20;12.30;;;11.03;;
8281;SDS011;25606;42.686;23.136;2022-09-09T03:45:47;11.37;;;10.13;;
8281;SDS011;25606;42.686;23.136;2022-09-09T03:48:15;11.13;;;9.83;;
8281;SDS011;25606;42.686;23.136;2022-09-09T03:50:45;12.47;;;10.47;;
8281;SDS011;25606;42.686;23.136;2022-09-09T03:53:13;12.20;;;10.53;;
8281;SDS011;25606;42.686;23.136;2022-09-09T03:55:44;12.37;;;11.17;;
8281;SDS011;25606;42.686;23.136;2022-09-09T03:58:11;11.17;;;10.03;;
8281;SDS011;25606;42.686;23.136;2022-09-09T04:00:39;11.63;;;10.43;;
8281;SDS011;25606;42.686;23.136;2022-09-09T04:03:07;12.17;;;10.83;;
8281;SDS011;25606;42.686;23.136;2022-09-09T04:05:34;11.20;;;10.20;;
8281;SDS011;25606;42.686;23.136;2022-09-09T04:08:04;11.53;;;10.33;;
8281;SDS011;25606;42.686;23.136;2022-09-09T04:10:32;11.73;;;9.93;;
8281;SDS011;25606;42.686;23.136;2022-09-09T04:13:02;11.00;;;10.00;;
8281;SDS011;25606;42.686;23.136;2022-09-09T04:15:29;12.10;;;10.90;;
8281;SDS011;25606;42.686;23.136;2022-09-09T04:17:57;11.60;;;10.50;;
8281;SDS011;25606;42.686;23.136;2022-09-09T04:20:24;12.07;;;10.87;;
8281;SDS011;25606;42.686;23.136;2022-09-09T04:22:51;11.47;;;10.27;;
8281;SDS011;25606;42.686;23.136;2022-09-09T04:25:19;11.60;;;10.40;;
8281;SDS011;25606;42.686;23.136;2022-09-09T04:27:46;11.60;;;9.83;;
8281;SDS011;25606;42.686;23.136;2022-09-09T04:30:18;10.90;;;9.73;;
8281;SDS011;25606;42.686;23.136;2022-09-09T04:32:46;12.40;;;9.33;;
8281;SDS011;25606;42.686;23.136;2022-09-09T04:35:13;11.87;;;10.67;;
8281;SDS011;25606;42.686;23.136;2022-09-09T04:37:40;12.87;;;11.60;;
8281;SDS011;25606;42.686;23.136;2022-09-09T04:40:08;12.17;;;11.00;;
8281;SDS011;25606;42.686;23.136;2022-09-09T04:42:35;12.93;;;11.07;;
8281;SDS011;25606;42.686;23.136;2022-09-09T04:45:03;13.07;;;10.73;;
8281;SDS011;25606;42.686;23.136;2022-09-09T04:47:31;11.07;;;10.07;;
8281;SDS011;25606;42.686;23.136;2022-09-09T04:49:59;10.57;;;9.67;;
8281;SDS011;25606;42.686;23.136;2022-09-09T04:52:26;10.73;;;9.77;;
8281;SDS011;25606;42.686;23.136;2022-09-09T04:54:54;11.07;;;9.90;;
8281;SDS011;25606;42.686;23.136;2022-09-09T04:57:21;10.20;;;9.30;;
8281;SDS011;25606;42.686;23.136;2022-09-09T04:59:49;10.63;;;9.63;;
8281;SDS011;25606;42.686;23.136;2022-09-09T05:02:16;12.77;;;10.07;;
8281;SDS011;25606;42.686;23.136;2022-09-09T05:04:45;11.97;;;10.90;;
8281;SDS011;25606;42.686;23.136;2022-09-09T05:07:12;11.00;;;10.00;;
8281;SDS011;25606;42.686;23.136;2022-09-09T05:09:40;10.87;;;9.77;;
8281;SDS011;25606;42.686;23.136;2022-09-09T05:12:07;10.83;;;9.73;;
8281;SDS011;25606;42.686;23.136;2022-09-09T05:14:34;9.90;;;9.03;;
8281;SDS011;25606;42.686;23.136;2022-09-09T05:17:02;12.13;;;10.87;;
8281;SDS011;25606;42.686;23.136;2022-09-09T05:19:29;10.80;;;9.70;;
8281;SDS011;25606;42.686;23.136;2022-09-09T05:21:58;10.73;;;9.83;;
8281;SDS011;25606;42.686;23.136;2022-09-09T05:24:26;10.53;;;9.40;;
8281;SDS011;25606;42.686;23.136;2022-09-09T05:26:53;11.33;;;10.17;;
8281;SDS011;25606;42.686;23.136;2022-09-09T05:29:23;10.27;;;9.30;;
8281;SDS011;25606;42.686;23.136;2022-09-09T05:31:50;10.30;;;9.30;;
8281;SDS011;25606;42.686;23.136;2022-09-09T05:34:17;10.50;;;9.40;;
8281;SDS011;25606;42.686;23.136;2022-09-09T05:36:45;10.03;;;9.00;;
8281;SDS011;25606;42.686;23.136;2022-09-09T05:39:14;9.73;;;8.83;;
8281;SDS011;25606;42.686;23.136;2022-09-09T05:41:41;8.87;;;7.93;;
8281;SDS011;25606;42.686;23.136;2022-09-09T05:44:08;9.50;;;8.60;;
8281;SDS011;25606;42.686;23.136;2022-09-09T05:46:36;8.27;;;7.43;;
8281;SDS011;25606;42.686;23.136;2022-09-09T05:49:03;9.33;;;7.83;;
8281;SDS011;25606;42.686;23.136;2022-09-09T05:51:31;10.00;;;7.07;;
8281;SDS011;25606;42.686;23.136;2022-09-09T05:53:58;8.73;;;7.40;;
8281;SDS011;25606;42.686;23.136;2022-09-09T05:56:27;7.57;;;6.87;;
8281;SDS011;25606;42.686;23.136;2022-09-09T05:58:55;8.40;;;7.60;;
8281;SDS011;25606;42.686;23.136;2022-09-09T06:01:25;11.87;;;10.63;;
8281;SDS011;25606;42.686;23.136;2022-09-09T06:03:53;7.90;;;7.20;;
8281;SDS011;25606;42.686;23.136;2022-09-09T06:06:21;8.63;;;7.77;;
8281;SDS011;25606;42.686;23.136;2022-09-09T06:08:50;11.57;;;10.40;;
8281;SDS011;25606;42.686;23.136;2022-09-09T06:11:18;8.03;;;7.23;;
8281;SDS011;25606;42.686;23.136;2022-09-09T06:13:47;14.50;;;11.63;;
8281;SDS011;25606;42.686;23.136;2022-09-09T06:16:17;12.82;;;7.80;;
8281;SDS011;25606;42.686;23.136;2022-09-09T06:18:44;9.45;;;8.43;;
8281;SDS011;25606;42.686;23.136;2022-09-09T06:21:14;15.48;;;13.32;;
8281;SDS011;25606;42.686;23.136;2022-09-09T06:23:42;10.70;;;8.32;;
8281;SDS011;25606;42.686;23.136;2022-09-09T06:26:10;8.27;;;7.47;;
8281;SDS011;25606;42.686;23.136;2022-09-09T06:28:38;29.33;;;24.98;;
8281;SDS011;25606;42.686;23.136;2022-09-09T06:31:08;10.10;;;8.40;;
8281;SDS011;25606;42.686;23.136;2022-09-09T06:33:36;8.05;;;7.10;;
8281;SDS011;25606;42.686;23.136;2022-09-09T06:36:05;8.38;;;7.50;;
8281;SDS011;25606;42.686;23.136;2022-09-09T06:38:32;9.00;;;7.35;;
8281;SDS011;25606;42.686;23.136;2022-09-09T06:41:00;12.68;;;8.77;;
8281;SDS011;25606;42.686;23.136;2022-09-09T06:43:27;10.82;;;9.20;;
8281;SDS011;25606;42.686;23.136;2022-09-09T06:45:55;9.07;;;7.53;;
8281;SDS011;25606;42.686;23.136;2022-09-09T06:48:23;17.42;;;9.32;;
8281;SDS011;25606;42.686;23.136;2022-09-09T06:50:59;9.80;;;6.72;;
8281;SDS011;25606;42.686;23.136;2022-09-09T06:53:27;9.52;;;6.78;;
8281;SDS011;25606;42.686;23.136;2022-09-09T06:55:54;10.00;;;7.32;;
8281;SDS011;25606;42.686;23.136;2022-09-09T06:58:21;10.35;;;6.97;;
8281;SDS011;25606;42.686;23.136;2022-09-09T07:00:48;12.20;;;6.55;;
8281;SDS011;25606;42.686;23.136;2022-09-09T07:03:15;12.07;;;7.68;;
8281;SDS011;25606;42.686;23.136;2022-09-09T07:05:44;9.25;;;6.93;;
8281;SDS011;25606;42.686;23.136;2022-09-09T07:08:20;8.38;;;6.63;;
8281;SDS011;25606;42.686;23.136;2022-09-09T07:10:47;9.43;;;7.45;;
8281;SDS011;25606;42.686;23.136;2022-09-09T07:13:14;8.95;;;6.50;;
8281;SDS011;25606;42.686;23.136;2022-09-09T07:15:41;7.57;;;6.82;;
8281;SDS011;25606;42.686;23.136;2022-09-09T07:18:09;7.35;;;6.70;;
8281;SDS011;25606;42.686;23.136;2022-09-09T07:20:36;8.18;;;7.35;;
8281;SDS011;25606;42.686;23.136;2022-09-09T07:23:05;10.95;;;9.25;;
8281;SDS011;25606;42.686;23.136;2022-09-09T07:25:32;8.38;;;6.55;;
8281;SDS011;25606;42.686;23.136;2022-09-09T07:27:59;7.80;;;6.60;;
8281;SDS011;25606;42.686;23.136;2022-09-09T07:30:28;8.38;;;6.72;;
8281;SDS011;25606;42.686;23.136;2022-09-09T07:32:55;8.73;;;7.05;;
8281;SDS011;25606;42.686;23.136;2022-09-09T07:35:24;8.43;;;6.57;;
8281;SDS011;25606;42.686;23.136;2022-09-09T07:37:52;8.88;;;7.60;;
8281;SDS011;25606;42.686;23.136;2022-09-09T07:40:20;7.60;;;6.97;;
8281;SDS011;25606;42.686;23.136;2022-09-09T07:42:47;8.35;;;6.85;;
8281;SDS011;25606;42.686;23.136;2022-09-09T07:45:15;7.82;;;6.88;;
8281;SDS011;25606;42.686;23.136;2022-09-09T07:47:42;10.07;;;6.93;;
8281;SDS011;25606;42.686;23.136;2022-09-09T07:50:09;10.88;;;7.35;;
8281;SDS011;25606;42.686;23.136;2022-09-09T07:52:36;14.50;;;8.18;;
8281;SDS011;25606;42.686;23.136;2022-09-09T07:55:04;10.13;;;7.60;;
8281;SDS011;25606;42.686;23.136;2022-09-09T07:57:33;10.77;;;7.55;;
8281;SDS011;25606;42.686;23.136;2022-09-09T08:00:00;10.73;;;7.18;;
8281;SDS011;25606;42.686;23.136;2022-09-09T08:02:27;10.05;;;8.35;;
8281;SDS011;25606;42.686;23.136;2022-09-09T08:04:55;8.27;;;7.38;;
8281;SDS011;25606;42.686;23.136;2022-09-09T08:07:22;10.30;;;8.35;;
8281;SDS011;25606;42.686;23.136;2022-09-09T08:09:49;14.00;;;8.48;;
8281;SDS011;25606;42.686;23.136;2022-09-09T08:12:17;7.47;;;6.60;;
8281;SDS011;25606;42.686;23.136;2022-09-09T08:14:45;9.88;;;7.53;;
8281;SDS011;25606;42.686;23.136;2022-09-09T08:17:13;30.48;;;21.38;;
8281;SDS011;25606;42.686;23.136;2022-09-09T08:19:40;10.35;;;7.70;;
8281;SDS011;25606;42.686;23.136;2022-09-09T08:22:08;7.50;;;6.70;;
8281;SDS011;25606;42.686;23.136;2022-09-09T08:24:35;15.38;;;12.57;;
8281;SDS011;25606;42.686;23.136;2022-09-09T08:27:02;36.10;;;23.98;;
8281;SDS011;25606;42.686;23.136;2022-09-09T08:29:29;16.52;;;13.48;;
8281;SDS011;25606;42.686;23.136;2022-09-09T08:31:58;11.30;;;7.60;;
8281;SDS011;25606;42.686;23.136;2022-09-09T08:34:26;8.15;;;6.95;;
8281;SDS011;25606;42.686;23.136;2022-09-09T08:36:55;7.80;;;6.95;;
8281;SDS011;25606;42.686;23.136;2022-09-09T08:39:22;8.18;;;7.25;;
8281;SDS011;25606;42.686;23.136;2022-09-09T08:41:53;9.80;;;6.93;;
8281;SDS011;25606;42.686;23.136;2022-09-09T08:44:28;9.05;;;6.95;;
8281;SDS011;25606;42.686;23.136;2022-09-09T08:47:01;8.35;;;7.00;;
8281;SDS011;25606;42.686;23.136;2022-09-09T08:49:37;8.80;;;7.13;;
8281;SDS011;25606;42.686;23.136;2022-09-09T08:52:08;9.55;;;7.05;;
8281;SDS011;25606;42.686;23.136;2022-09-09T08:54:40;11.68;;;10.00;;
8281;SDS011;25606;42.686;23.136;2022-09-09T08:57:09;18.02;;;12.60;;
8281;SDS011;25606;42.686;23.136;2022-09-09T08:59:38;10.27;;;7.28;;
8281;SDS011;25606;42.686;23.136;2022-09-09T09:02:08;8.15;;;7.32;;
8281;SDS011;25606;42.686;23.136;2022-09-09T09:04:45;9.02;;;7.80;;
8281;SDS011;25606;42.686;23.136;2022-09-09T09:07:18;8.75;;;6.97;;
8281;SDS011;25606;42.686;23.136;2022-09-09T09:09:51;7.85;;;7.03;;
8281;SDS011;25606;42.686;23.136;2022-09-09T09:12:24;14.18;;;7.07;;
8281;SDS011;25606;42.686;23.136;2022-09-09T09:14:52;9.38;;;7.15;;
8281;SDS011;25606;42.686;23.136;2022-09-09T09:17:23;10.07;;;8.43;;
8281;SDS011;25606;42.686;23.136;2022-09-09T09:19:51;12.82;;;7.97;;
8281;SDS011;25606;42.686;23.136;2022-09-09T09:22:19;6.88;;;6.25;;
8281;SDS011;25606;42.686;23.136;2022-09-09T09:24:50;9.23;;;7.68;;
8281;SDS011;25606;42.686;23.136;2022-09-09T09:27:20;8.32;;;7.20;;
8281;SDS011;25606;42.686;23.136;2022-09-09T09:29:48;8.35;;;6.32;;
8281;SDS011;25606;42.686;23.136;2022-09-09T09:32:18;8.00;;;6.70;;
8281;SDS011;25606;42.686;23.136;2022-09-09T09:34:49;7.50;;;6.88;;
8281;SDS011;25606;42.686;23.136;2022-09-09T09:37:20;8.00;;;7.20;;
8281;SDS011;25606;42.686;23.136;2022-09-09T09:39:51;8.00;;;7.20;;
8281;SDS011;25606;42.686;23.136;2022-09-09T09:42:18;8.00;;;7.22;;
8281;SDS011;25606;42.686;23.136;2022-09-09T09:44:46;44.08;;;26.05;;
8281;SDS011;25606;42.686;23.136;2022-09-09T09:47:14;28.98;;;17.60;;
8281;SDS011;25606;42.686;23.136;2022-09-09T09:49:52;10.82;;;8.05;;
8281;SDS011;25606;42.686;23.136;2022-09-09T09:52:21;8.02;;;7.25;;
8281;SDS011;25606;42.686;23.136;2022-09-09T09:54:50;9.25;;;6.90;;
8281;SDS011;25606;42.686;23.136;2022-09-09T09:57:18;7.85;;;7.10;;
8281;SDS011;25606;42.686;23.136;2022-09-09T09:59:46;8.57;;;7.82;;
8281;SDS011;25606;42.686;23.136;2022-09-09T10:02:13;9.73;;;7.72;;
8281;SDS011;25606;42.686;23.136;2022-09-09T10:04:41;9.98;;;7.78;;
8281;SDS011;25606;42.686;23.136;2022-09-09T10:07:12;10.52;;;7.80;;
8281;SDS011;25606;42.686;23.136;2022-09-09T10:09:39;10.90;;;7.80;;
8281;SDS011;25606;42.686;23.136;2022-09-09T10:12:09;8.60;;;7.70;;
8281;SDS011;25606;42.686;23.136;2022-09-09T10:14:45;8.43;;;7.20;;
8281;SDS011;25606;42.686;23.136;2022-09-09T10:17:18;8.90;;;7.47;;
8281;SDS011;25606;42.686;23.136;2022-09-09T10:19:50;9.32;;;8.18;;
8281;SDS011;25606;42.686;23.136;2022-09-09T10:22:25;8.27;;;7.47;;
8281;SDS011;25606;42.686;23.136;2022-09-09T10:24:57;10.05;;;7.72;;
8281;SDS011;25606;42.686;23.136;2022-09-09T10:27:30;8.63;;;7.78;;
8281;SDS011;25606;42.686;23.136;2022-09-09T10:30:09;8.50;;;7.57;;
8281;SDS011;25606;42.686;23.136;2022-09-09T10:32:45;8.80;;;7.90;;
8281;SDS011;25606;42.686;23.136;2022-09-09T10:35:15;11.43;;;8.25;;
8281;SDS011;25606;42.686;23.136;2022-09-09T10:37:52;10.35;;;8.20;;
8281;SDS011;25606;42.686;23.136;2022-09-09T10:40:26;8.88;;;7.55;;
8281;SDS011;25606;42.686;23.136;2022-09-09T10:42:56;9.80;;;7.60;;
8281;SDS011;25606;42.686;23.136;2022-09-09T10:45:27;9.98;;;7.18;;
8281;SDS011;25606;42.686;23.136;2022-09-09T10:48:02;9.05;;;6.93;;
8281;SDS011;25606;42.686;23.136;2022-09-09T10:50:42;9.77;;;8.00;;
8281;SDS011;25606;42.686;23.136;2022-09-09T10:53:17;11.30;;;7.20;;
8281;SDS011;25606;42.686;23.136;2022-09-09T10:55:50;10.02;;;7.65;;
8281;SDS011;25606;42.686;23.136;2022-09-09T10:58:19;7.90;;;6.97;;
8281;SDS011;25606;42.686;23.136;2022-09-09T11:00:51;9.48;;;7.03;;
8281;SDS011;25606;42.686;23.136;2022-09-09T11:03:20;12.32;;;7.78;;
8281;SDS011;25606;42.686;23.136;2022-09-09T11:05:51;8.70;;;6.90;;
8281;SDS011;25606;42.686;23.136;2022-09-09T11:08:21;8.68;;;7.63;;
8281;SDS011;25606;42.686;23.136;2022-09-09T11:10:50;11.10;;;7.32;;
8281;SDS011;25606;42.686;23.136;2022-09-09T11:13:22;8.38;;;7.57;;
8281;SDS011;25606;42.686;23.136;2022-09-09T11:15:52;9.13;;;7.45;;
8281;SDS011;25606;42.686;23.136;2022-09-09T11:18:20;8.15;;;7.35;;
8281;SDS011;25606;42.686;23.136;2022-09-09T11:20:49;10.50;;;6.80;;
8281;SDS011;25606;42.686;23.136;2022-09-09T11:23:18;8.95;;;6.80;;
8281;SDS011;25606;42.686;23.136;2022-09-09T11:25:51;7.28;;;6.63;;
8281;SDS011;25606;42.686;23.136;2022-09-09T11:28:27;7.95;;;7.05;;
8281;SDS011;25606;42.686;23.136;2022-09-09T11:31:00;8.38;;;6.93;;
8281;SDS011;25606;42.686;23.136;2022-09-09T11:36:35;9.45;;;6.95;;
8281;SDS011;25606;42.686;23.136;2022-09-09T11:39:10;7.07;;;6.38;;
8281;SDS011;25606;42.686;23.136;2022-09-09T11:41:44;7.47;;;6.60;;
8281;SDS011;25606;42.686;23.136;2022-09-09T11:44:12;6.80;;;6.15;;
8281;SDS011;25606;42.686;23.136;2022-09-09T11:46:40;7.43;;;6.45;;
8281;SDS011;25606;42.686;23.136;2022-09-09T11:49:21;283.60;;;162.23;;
8281;SDS011;25606;42.686;23.136;2022-09-09T11:51:50;285.40;;;172.57;;
8281;SDS011;25606;42.686;23.136;2022-09-09T11:54:26;264.60;;;143.98;;
8281;SDS011;25606;42.686;23.136;2022-09-09T11:56:55;9.65;;;6.90;;
8281;SDS011;25606;42.686;23.136;2022-09-09T11:59:23;7.75;;;6.28;;
8281;SDS011;25606;42.686;23.136;2022-09-09T12:01:54;9.13;;;6.57;;
8281;SDS011;25606;42.686;23.136;2022-09-09T12:04:27;6.82;;;6.20;;
8281;SDS011;25606;42.686;23.136;2022-09-09T12:06:56;7.95;;;6.40;;
8281;SDS011;25606;42.686;23.136;2022-09-09T12:09:28;6.57;;;5.97;;
8281;SDS011;25606;42.686;23.136;2022-09-09T12:12:17;8.50;;;6.32;;
8281;SDS011;25606;42.686;23.136;2022-09-09T12:14:54;7.22;;;6.22;;
8281;SDS011;25606;42.686;23.136;2022-09-09T12:17:22;9.55;;;6.60;;
8281;SDS011;25606;42.686;23.136;2022-09-09T12:19:59;6.90;;;6.25;;
8281;SDS011;25606;42.686;23.136;2022-09-09T12:22:32;8.93;;;6.47;;
8281;SDS011;25606;42.686;23.136;2022-09-09T12:25:04;10.52;;;6.10;;
8281;SDS011;25606;42.686;23.136;2022-09-09T12:27:40;7.78;;;5.75;;
8281;SDS011;25606;42.686;23.136;2022-09-09T12:30:11;6.65;;;5.97;;
8281;SDS011;25606;42.686;23.136;2022-09-09T12:32:38;6.60;;;5.65;;
8281;SDS011;25606;42.686;23.136;2022-09-09T12:35:09;7.40;;;6.68;;
8281;SDS011;25606;42.686;23.136;2022-09-09T12:37:38;8.02;;;6.43;;
8281;SDS011;25606;42.686;23.136;2022-09-09T12:40:18;10.00;;;6.38;;
8281;SDS011;25606;42.686;23.136;2022-09-09T12:42:47;10.35;;;5.63;;
8281;SDS011;25606;42.686;23.136;2022-09-09T12:45:15;7.82;;;5.90;;
8281;SDS011;25606;42.686;23.136;2022-09-09T12:47:44;9.10;;;6.35;;
8281;SDS011;25606;42.686;23.136;2022-09-09T12:50:16;9.52;;;6.00;;
8281;SDS011;25606;42.686;23.136;2022-09-09T12:52:44;9.38;;;6.68;;
8281;SDS011;25606;42.686;23.136;2022-09-09T12:55:16;6.75;;;5.50;;
8281;SDS011;25606;42.686;23.136;2022-09-09T12:57:44;8.25;;;6.78;;
8281;SDS011;25606;42.686;23.136;2022-09-09T13:00:15;7.03;;;6.20;;
8281;SDS011;25606;42.686;23.136;2022-09-09T13:02:49;6.90;;;5.80;;
8281;SDS011;25606;42.686;23.136;2022-09-09T13:05:18;11.07;;;5.82;;
8281;SDS011;25606;42.686;23.136;2022-09-09T13:07:46;7.78;;;5.20;;
8281;SDS011;25606;42.686;23.136;2022-09-09T13:10:14;6.13;;;5.40;;
8281;SDS011;25606;42.686;23.136;2022-09-09T13:12:42;6.50;;;5.78;;
8281;SDS011;25606;42.686;23.136;2022-09-09T13:15:14;9.35;;;5.35;;
8281;SDS011;25606;42.686;23.136;2022-09-09T13:17:48;7.10;;;5.25;;
8281;SDS011;25606;42.686;23.136;2022-09-09T13:20:16;6.88;;;4.95;;
8281;SDS011;25606;42.686;23.136;2022-09-09T13:22:44;7.80;;;5.05;;
8281;SDS011;25606;42.686;23.136;2022-09-09T13:25:17;5.88;;;4.97;;
8281;SDS011;25606;42.686;23.136;2022-09-09T13:27:51;9.30;;;5.20;;
8281;SDS011;25606;42.686;23.136;2022-09-09T13:30:22;8.83;;;5.30;;
8281;SDS011;25606;42.686;23.136;2022-09-09T13:32:59;7.37;;;5.60;;
8281;SDS011;25606;42.686;23.136;2022-09-09T13:35:27;9.53;;;6.03;;
8281;SDS011;25606;42.686;23.136;2022-09-09T13:37:54;6.27;;;5.67;;
8281;SDS011;25606;42.686;23.136;2022-09-09T13:40:22;7.60;;;6.30;;
8281;SDS011;25606;42.686;23.136;2022-09-09T13:42:51;11.83;;;5.47;;
8281;SDS011;25606;42.686;23.136;2022-09-09T13:45:19;9.93;;;5.83;;
8281;SDS011;25606;42.686;23.136;2022-09-09T13:47:49;7.13;;;5.40;;
8281;SDS011;25606;42.686;23.136;2022-09-09T13:50:20;6.55;;;5.20;;
8281;SDS011;25606;42.686;23.136;2022-09-09T13:52:48;7.05;;;5.03;;
8281;SDS011;25606;42.686;23.136;2022-09-09T13:55:16;7.28;;;5.63;;
8281;SDS011;25606;42.686;23.136;2022-09-09T13:57:50;6.75;;;5.63;;
8281;SDS011;25606;42.686;23.136;2022-09-09T14:00:17;6.85;;;5.13;;
8281;SDS011;25606;42.686;23.136;2022-09-09T14:02:45;8.25;;;4.97;;
8281;SDS011;25606;42.686;23.136;2022-09-09T14:05:14;5.75;;;4.93;;
8281;SDS011;25606;42.686;23.136;2022-09-09T14:07:42;6.97;;;5.22;;
8281;SDS011;25606;42.686;23.136;2022-09-09T14:10:10;9.63;;;5.07;;
8281;SDS011;25606;42.686;23.136;2022-09-09T14:12:38;7.43;;;5.38;;
8281;SDS011;25606;42.686;23.136;2022-09-09T14:15:05;10.68;;;5.57;;
8281;SDS011;25606;42.686;23.136;2022-09-09T14:17:33;7.40;;;5.20;;
8281;SDS011;25606;42.686;23.136;2022-09-09T14:20:01;7.38;;;5.35;;
8281;SDS011;25606;42.686;23.136;2022-09-09T14:22:30;7.13;;;5.70;;
8281;SDS011;25606;42.686;23.136;2022-09-09T14:24:58;7.77;;;6.43;;
8281;SDS011;25606;42.686;23.136;2022-09-09T14:27:25;8.43;;;5.88;;
8281;SDS011;25606;42.686;23.136;2022-09-09T14:29:52;8.20;;;5.73;;
8281;SDS011;25606;42.686;23.136;2022-09-09T14:32:20;8.53;;;6.07;;
8281;SDS011;25606;42.686;23.136;2022-09-09T14:34:47;8.30;;;5.97;;
8281;SDS011;25606;42.686;23.136;2022-09-09T14:37:15;8.93;;;6.38;;
8281;SDS011;25606;42.686;23.136;2022-09-09T14:39:43;6.53;;;5.83;;
8281;SDS011;25606;42.686;23.136;2022-09-09T14:42:12;7.80;;;6.23;;
8281;SDS011;25606;42.686;23.136;2022-09-09T14:44:39;6.77;;;6.10;;
8281;SDS011;25606;42.686;23.136;2022-09-09T14:47:07;7.70;;;5.80;;
8281;SDS011;25606;42.686;23.136;2022-09-09T14:49:34;9.33;;;6.13;;
8281;SDS011;25606;42.686;23.136;2022-09-09T14:52:02;7.82;;;6.13;;
8281;SDS011;25606;42.686;23.136;2022-09-09T14:54:29;8.43;;;6.20;;